Aviation Discussion

  

Terminal Aviation Forecasts

TAFBWI (View previous versions )
KBWI 241737Z 2418/2524 19005KT P6SM FEW060 SCT200
     FM250300 17005KT P6SM SCT060 BKN080
     FM250800 19005KT P6SM SCT150
     FM251400 21009KT P6SM SCT250
     FM251800 20012G22KT P6SM FEW250=

TAFCHO (View previous versions )
KCHO 250520Z 2506/2606 VRB03KT P6SM SCT200
     FM251300 20008KT P6SM SCT200
     FM251500 20010G20KT P6SM FEW050 SCT200
     FM252300 20008KT P6SM SCT200
     FM260100 VRB04KT P6SM SCT200=

TAFDCA (View previous versions )
KDCA 250520Z 2506/2606 18005KT P6SM FEW200
     FM251300 20010KT P6SM SCT200
     FM251500 20012G22KT P6SM FEW050 SCT200
     FM260000 19008KT P6SM SCT200=

AMENDED TAFIAD (View previous versions )
KIAD 242053Z 2421/2524 24005KT P6SM FEW060 SCT200
     FM250000 19005KT P6SM BKN080
     FM250700 19005KT P6SM SCT150
     FM251300 20009KT P6SM SCT250
     FM251600 20011G22KT P6SM FEW250=

TAFMRB (View previous versions )
KMRB 242332Z 2500/2524 12006KT P6SM BKN080
     FM250600 20005KT P6SM BKN200
     FM251600 20010G18KT P6SM FEW200=

TAFMTN (View previous versions )
KMTN 250520Z 2506/2606 NIL=


Meteorological Impact Statement

ZDC MIS 02 VALID 242055-250400
...FOR ATC PLANNING PURPOSES ONLY...
VFR. ISOL MOD TURB ABV FL270 N/E ZDC. NO OTHER SIG WX EXPECTED.

Surface Map


TRACON Thunderstorm Forecast


Vertical Wind Profiles